Latest Weather Observations for Lady Elliot Island

IDQ60801

Issued at 12:22 pm EST Sunday 23 September 2018 (issued every 10 minutes, with the page automatically refreshed every 10 minutes)

About weather observations | Map of weather stations | Latest weather observations for QLD | Other Formats
Station Details ID: 039059 Name: LADY ELLIOT ISLAND Lat: -24.11 Lon: 152.72 Height: 3.6 m
Data from the previous 72 hours. | See also: Recent months at Lady Elliot Island
Date/Time
EST
Temp
°C
App
Temp
°C
Dew
Point
°C
Rel
Hum
%
Delta-T
°C
Wind Press
QNH
hPa
Press
MSL
hPa
Rain since
9am
mm
Dir  Spd
km/h
Gust
km/h
Spd
kts
Gust
kts
23/12:00pm 24.6 21.9 13.5 50 6.5 SE 20 26 11 14 1022.5 1022.5 0.0
23/11:30am 24.6 21.8 13.2 49 6.6 SE 20 28 11 15 1022.8 1022.8 0.0
23/11:00am 25.0 22.5 13.5 48 6.7 SE 19 26 10 14 1023.3 1023.3 0.0
23/10:30am 24.5 21.7 12.5 47 6.9 SE 19 24 10 13 1023.6 1023.6 0.0
23/10:00am 24.5 21.7 12.5 47 6.9 SE 19 24 10 13 1023.8 1023.8 0.0
23/09:30am 24.0 21.0 12.0 47 6.8 SE 19 22 10 12 1024.0 1024.0 0.0
23/09:00am 23.5 20.4 12.2 49 6.4 SE 20 26 11 14 1024.1 1024.1 0.0
23/08:30am 22.4 19.5 12.9 55 5.4 SE 20 28 11 15 1024.0 1024.0 0.0
23/08:00am 22.7 19.4 12.9 54 5.6 SE 22 30 12 16 1023.8 1023.8 0.0
23/07:30am 21.9 18.2 12.7 56 5.2 SE 24 30 13 16 1023.6 1023.6 0.0
23/07:00am 21.4 18.1 12.8 58 4.9 SE 22 30 12 16 1023.4 1023.4 0.0
23/06:30am 20.7 17.0 12.7 60 4.5 SE 24 30 13 16 1023.2 1023.2 0.0
23/06:00am 20.4 17.7 13.4 64 4.0 SE 20 28 11 15 1022.8 1022.8 0.0
23/05:30am 20.2 17.5 13.4 65 3.9 SE 20 26 11 14 1022.7 1022.7 0.0
23/05:00am 20.0 16.7 12.7 63 4.1 SE 22 28 12 15 1022.4 1022.4 0.0
23/04:30am 20.0 16.5 13.5 66 3.7 ESE 24 32 13 17 1022.0 1022.0 0.0
23/04:00am 19.9 16.7 14.3 70 3.2 ESE 24 32 13 17 1021.8 1021.8 0.0
23/03:30am 19.7 15.8 14.3 71 3.1 ESE 28 33 15 18 1021.9 1021.9 0.0
23/03:00am 19.6 16.7 15.0 75 2.7 ESE 24 30 13 16 1022.1 1022.1 0.0
23/02:30am 19.6 15.8 14.8 74 2.8 ESE 28 33 15 18 1022.2 1022.2 0.0
23/02:00am 19.8 15.7 14.8 73 2.9 ESE 30 35 16 19 1022.5 1022.5 0.0
23/01:30am 19.7 16.0 14.9 74 2.8 ESE 28 35 15 19 1023.0 1023.0 0.0
23/01:00am 20.0 16.5 15.4 75 2.7 ESE 28 35 15 19 1023.4 1023.4 0.0
23/12:30am 20.2 15.5 13.2 64 4.0 ESE 30 33 16 18 1023.8 1023.8 0.0
23/12:00am 20.3 16.5 13.5 65 3.9 ESE 26 33 14 18 1024.2 1024.2 0.0
 
Date/Time
EST
Temp
°C
App
Temp
°C
Dew
Point
°C
Rel
Hum
%
Delta-T
°C
Wind Press
QNH
hPa
Press
MSL
hPa
Rain since
9am
mm
Dir  Spd
km/h
Gust
km/h
Spd
kts
Gust
kts
22/11:30pm 20.4 16.3 12.6 61 4.4 ESE 26 32 14 17 1024.3 1024.3 0.0
22/11:00pm 20.4 16.6 12.4 60 4.5 ESE 24 32 13 17 1024.6 1024.6 0.0
22/10:30pm 20.5 16.0 12.5 60 4.5 SE 28 35 15 19 1024.7 1024.7 0.0
22/10:00pm 20.6 16.0 12.3 59 4.6 SE 28 37 15 20 1024.7 1024.7 0.0
22/09:30pm 20.6 15.8 12.8 61 4.4 SE 30 39 16 21 1025.0 1025.0 0.0
22/09:00pm 20.6 16.1 13.8 65 3.9 SE 30 37 16 20 1025.0 1025.0 0.0
22/08:30pm 20.8 17.0 13.7 64 4.1 SE 26 35 14 19 1024.9 1024.9 0.0
22/08:00pm 20.7 16.5 13.4 63 4.2 SE 28 39 15 21 1024.7 1024.7 0.0
22/07:30pm 20.7 16.5 13.4 63 4.2 SE 28 35 15 19 1024.5 1024.5 0.0
22/07:00pm 20.7 16.2 13.9 65 3.9 SE 30 39 16 21 1024.0 1024.0 0.0
22/06:30pm 20.8 16.0 14.0 65 3.9 SE 32 41 17 22 1023.5 1023.5 0.0
22/06:00pm 20.7 15.6 13.2 62 4.3 SE 32 41 17 22 1023.2 1023.2 0.0
22/05:30pm 20.8 15.4 12.2 58 4.8 ESE 32 44 17 24 1023.2 1023.2 0.0
22/05:00pm 21.2 16.3 13.6 62 4.4 SE 32 39 17 21 1023.1 1023.1 0.0
22/04:30pm 21.2 15.8 12.3 57 5.0 ESE 32 43 17 23 1023.0 1023.0 0.0
22/04:00pm 21.7 16.8 13.6 60 4.7 SE 32 39 17 21 1022.9 1022.9 0.0
22/03:30pm 23.0 19.0 14.0 57 5.3 ESE 28 35 15 19 1022.8 1022.8 0.0
22/03:00pm 23.2 19.6 14.2 57 5.3 SE 26 33 14 18 1022.8 1022.8 0.0
22/02:30pm 23.8 19.8 14.2 55 5.7 SE 28 37 15 20 1022.9 1022.9 0.0
22/02:00pm 22.2 18.1 12.7 55 5.4 ESE 26 37 14 20 1023.1 1023.1 0.0
22/01:30pm 24.2 20.3 13.4 51 6.3 SE 26 37 14 20 1023.6 1023.6 0.0
22/01:00pm 23.4 19.2 13.6 54 5.7 ESE 28 35 15 19 1023.7 1023.7 0.0
22/12:30pm 24.4 20.4 14.2 53 6.0 ESE 28 37 15 20 1024.0 1024.0 0.0
22/12:00pm 23.4 18.8 13.6 54 5.7 ESE 30 43 16 23 1024.3 1024.3 0.0
22/11:30am 23.4 19.0 13.0 52 6.0 ESE 28 35 15 19 1024.9 1024.9 0.0
22/11:00am 24.1 19.3 13.0 50 6.4 ESE 30 39 16 21 1025.4 1025.4 0.0
22/10:30am 23.3 17.9 12.3 50 6.3 ESE 32 41 17 22 1025.7 1025.7 0.0
22/10:00am 23.1 17.3 12.7 52 5.9 ESE 35 44 19 24 1025.7 1025.7 0.0
22/09:30am 22.6 17.1 13.7 57 5.2 ESE 35 44 19 24 1025.9 1025.9 0.0
22/09:00am 21.3 16.7 14.5 65 4.0 ESE 32 41 17 22 1025.8 1025.8 0.2
22/08:30am 19.5 16.1 15.8 79 2.2 SE 28 43 15 23 1025.7 1025.7 0.2
22/08:00am 18.8 16.5 15.7 82 1.8 SSE 22 33 12 18 1025.7 1025.7 0.2
22/07:30am 20.9 16.6 14.3 66 3.8 ESE 30 35 16 19 1025.2 1025.2 0.0
22/07:00am 19.6 16.1 14.4 72 3.0 SE 26 39 14 21 1025.1 1025.1 0.0
22/06:30am 20.5 16.8 12.7 61 4.4 SE 24 32 13 17 1024.5 1024.5 0.0
22/06:00am 20.4 14.7 11.1 55 5.1 SE 32 43 17 23 1024.4 1024.4 0.0
22/05:30am 20.2 13.7 10.3 53 5.3 SE 35 48 19 26 1024.2 1024.2 0.0
22/05:00am 20.4 14.0 12.1 59 4.6 ESE 37 48 20 26 1023.9 1023.9 0.0
22/04:30am 20.4 14.7 12.9 62 4.3 ESE 35 46 19 25 1023.6 1023.6 0.0
22/04:00am 20.1 14.3 13.8 67 3.6 ESE 37 48 20 26 1023.5 1023.5 0.0
22/03:51am 20.2 15.8 14.1 68 3.5 SE 30 48 16 26 1023.4 1023.4 0.0
22/03:30am 20.3 14.8 11.8 58 4.7 SE 32 39 17 21 1023.3 1023.3 0.0
22/03:00am 20.2 14.3 10.3 53 5.3 SE 32 43 17 23 1023.4 1023.4 0.0
22/02:30am 20.0 14.4 12.0 60 4.5 SE 33 44 18 24 1023.6 1023.6 0.0
22/02:00am 20.0 14.1 10.4 54 5.2 SE 32 43 17 23 1024.0 1024.0 0.0
22/01:30am 20.1 14.1 10.8 55 5.1 SE 33 44 18 24 1024.3 1024.3 0.0
22/01:00am 20.3 13.7 11.5 57 4.8 SE 37 50 20 27 1024.5 1024.5 0.0
22/12:30am 20.4 14.0 12.1 59 4.6 SE 37 48 20 26 1024.7 1024.7 0.0
22/12:00am 20.5 15.3 12.7 61 4.4 SE 32 41 17 22 1024.8 1024.8 0.0
 
Date/Time
EST
Temp
°C
App
Temp
°C
Dew
Point
°C
Rel
Hum
%
Delta-T
°C
Wind Press
QNH
hPa
Press
MSL
hPa
Rain since
9am
mm
Dir  Spd
km/h
Gust
km/h
Spd
kts
Gust
kts
21/11:30pm 20.3 14.4 12.3 60 4.5 SE 35 44 19 24 1024.9 1024.9 0.0
21/11:00pm 20.2 14.2 12.2 60 4.5 SE 35 46 19 25 1025.0 1025.0 0.0
21/10:30pm 20.4 13.6 12.1 59 4.6 SE 39 50 21 27 1025.0 1025.0 0.0
21/10:00pm 20.3 13.7 11.5 57 4.8 SE 37 48 20 26 1025.1 1025.1 0.0
21/09:30pm 20.5 13.9 12.7 61 4.4 SE 39 50 21 27 1025.0 1025.0 0.0
21/09:00pm 20.5 13.4 13.5 64 4.0 SE 43 56 23 30 1024.8 1024.8 0.0
21/08:30pm 20.8 14.7 14.2 66 3.8 SE 39 52 21 28 1024.7 1024.7 0.0
21/08:00pm 19.9 15.4 14.9 73 2.9 SE 32 43 17 23 1024.6 1024.6 0.0
21/07:30pm 21.1 15.7 13.8 63 4.2 SE 35 44 19 24 1024.1 1024.1 0.0
21/07:00pm 20.9 15.1 12.8 60 4.6 SE 35 46 19 25 1023.6 1023.6 0.0
21/06:30pm 20.8 14.9 13.5 63 4.2 SE 37 50 20 27 1023.1 1023.1 0.0
21/06:00pm 20.7 15.2 13.6 64 4.1 SE 35 48 19 26 1022.6 1022.6 0.0
21/05:30pm 20.9 14.3 12.6 59 4.7 SE 39 50 21 27 1022.3 1022.3 0.0
21/05:00pm 21.2 14.6 13.6 62 4.4 SE 41 50 22 27 1022.1 1022.1 0.0
21/04:30pm 21.7 15.2 14.1 62 4.4 SE 41 54 22 29 1021.8 1021.8 0.0
21/04:00pm 22.1 15.9 13.7 59 4.9 SE 39 52 21 28 1021.4 1021.4 0.0
21/03:30pm 22.4 16.3 14.0 59 4.9 SE 39 50 21 27 1021.3 1021.3 0.0
21/03:00pm 22.7 16.5 15.0 61 4.6 SE 41 54 22 29 1021.2 1021.2 0.0
21/02:30pm 23.2 17.2 14.5 58 5.1 SE 39 50 21 27 1021.1 1021.1 0.0
21/02:00pm 23.3 17.2 15.1 60 4.9 SE 41 50 22 27 1021.1 1021.1 0.0
21/01:30pm 22.9 16.6 14.7 60 4.8 SE 41 54 22 29 1021.3 1021.3 0.0
21/01:00pm 23.7 18.2 14.7 57 5.3 SE 37 48 20 26 1021.5 1021.5 0.0
21/12:30pm 23.8 17.5 14.5 56 5.5 SE 41 54 22 29 1021.8 1021.8 0.0
21/12:00pm 22.9 17.1 15.0 61 4.7 SE 39 52 21 28 1021.9 1021.9 0.0
21/11:30am 23.9 18.4 15.7 60 5.0 SE 39 50 21 27 1022.2 1022.2 0.0
21/11:00am 21.9 15.2 14.5 63 4.3 SE 43 52 23 28 1022.4 1022.4 0.0
21/10:30am 23.2 17.6 15.5 62 4.6 SE 39 50 21 27 1022.5 1022.5 0.0
21/10:00am 22.0 15.8 14.9 64 4.2 SE 41 54 22 29 1022.4 1022.4 0.0
21/09:30am 22.1 17.4 15.9 68 3.7 SSE 35 50 19 27 1022.3 1022.3 0.0
21/09:00am 21.8 16.5 16.3 71 3.3 SSE 39 50 21 27 1022.1 1022.1 0.0
21/08:50am 21.5 18.5 16.7 74 2.9 SSE 28 50 15 27 1022.0 1022.0 0.0
21/08:30am 20.4 16.5 15.6 74 2.9 S 30 44 16 24 1021.9 1021.9 0.0
21/08:00am 20.5 16.9 15.3 72 3.1 S 28 39 15 21 1021.5 1021.5 0.0
21/07:30am 20.0 16.5 14.6 71 3.1 S 26 41 14 22 1021.3 1021.3 0.0
21/07:00am 19.8 16.2 14.2 70 3.2 S 26 39 14 21 1020.9 1020.9 0.0
21/06:30am 19.4 15.2 13.6 69 3.3 S 28 44 15 24 1020.6 1020.6 0.0
21/06:00am 19.1 13.8 11.4 61 4.2 S 30 48 16 26 1020.2 1020.2 0.0
21/05:56am 19.2 14.0 11.5 61 4.2 S 30 48 16 26 1020.1 1020.1 0.0
21/05:30am 19.2 13.2 8.5 50 5.6 S 30 44 16 24 1019.7 1019.7 0.0
21/05:00am 19.4 12.7 7.2 45 6.2 S 32 44 17 24 1019.3 1019.3 0.0
21/04:30am 19.6 12.9 7.4 45 6.2 S 32 48 17 26 1019.1 1019.1 0.0
21/04:05am 19.8 12.6 5.8 40 6.9 S 33 54 18 29 1018.8 1018.8 0.0
21/04:00am 19.8 12.3 6.5 42 6.7 S 35 48 19 26 1018.7 1018.7 0.0
21/03:30am 20.0 13.2 7.1 43 6.5 S 32 50 17 27 1018.5 1018.5 0.0
21/03:00am 20.1 13.3 7.8 45 6.3 S 33 56 18 30 1018.5 1018.5 0.0
21/02:30am 20.4 12.8 5.6 38 7.3 S 35 56 19 30 1018.2 1018.2 0.0
21/02:23am 20.5 13.0 6.5 40 7.1 S 35 54 19 29 1018.2 1018.2 0.0
21/02:00am 20.8 13.2 7.4 42 6.9 S 37 52 20 28 1018.0 1018.0 0.0
21/01:30am 21.0 13.4 7.6 42 6.9 S 37 57 20 31 1017.8 1017.8 0.0
21/01:26am 20.9 14.0 8.9 46 6.3 S 35 57 19 31 1017.8 1017.8 0.0
21/01:00am 21.1 15.7 12.8 59 4.7 S 33 44 18 24 1017.8 1017.8 0.0
21/12:30am 21.3 15.9 14.0 63 4.2 S 35 54 19 29 1017.8 1017.8 0.0
21/12:19am 21.5 17.0 13.9 62 4.4 S 30 48 16 26 1017.7 1017.7 0.0
21/12:00am 21.8 15.9 12.4 55 5.3 S 35 50 19 27 1017.6 1017.6 0.0
 
Date/Time
EST
Temp
°C
App
Temp
°C
Dew
Point
°C
Rel
Hum
%
Delta-T
°C
Wind Press
QNH
hPa
Press
MSL
hPa
Rain since
9am
mm
Dir  Spd
km/h
Gust
km/h
Spd
kts
Gust
kts
20/11:30pm 21.8 16.7 14.9 65 4.1 S 35 54 19 29 1017.4 1017.4 0.0
20/11:17pm 22.2 17.4 14.6 62 4.5 S 33 54 18 29 1017.3 1017.3 0.0
20/11:00pm 22.8 16.4 10.6 46 6.7 S 35 50 19 27 1016.9 1016.9 0.0
20/10:30pm 22.3 18.6 14.9 63 4.4 SSW 28 37 15 20 1017.1 1017.1 0.0
20/10:00pm 21.4 22.3 19.3 88 1.3 WSW 13 19 7 10 1017.0 1017.0 0.0
20/09:30pm 21.6 22.5 19.3 87 1.5 WNW 13 20 7 11 1016.5 1016.5 0.0
20/09:00pm 21.7 22.5 19.1 85 1.6 WNW 13 19 7 10 1016.3 1016.3 0.0
20/08:30pm 21.5 22.5 18.7 84 1.8 NW 11 17 6 9 1015.6 1015.6 0.0
20/08:00pm 21.7 22.3 18.7 83 1.9 NW 13 19 7 10 1015.3 1015.3 0.0
20/07:30pm 21.7 22.2 18.3 81 2.1 NNW 13 19 7 10 1014.9 1014.9 0.0
20/07:00pm 21.8 21.1 18.6 82 2.0 NNW 20 24 11 13 1014.4 1014.4 0.0
20/06:30pm 21.7 20.5 18.3 81 2.1 NNW 22 28 12 15 1014.0 1014.0 0.0
20/06:00pm 21.8 19.8 18.4 81 2.1 N 26 32 14 17 1013.6 1013.6 0.0
20/05:30pm 22.0 19.7 18.4 80 2.3 N 28 32 15 17 1013.3 1013.3 0.0
20/05:00pm 22.3 19.4 17.9 76 2.7 N 30 33 16 18 1013.1 1013.1 0.0
20/04:30pm 22.8 19.9 17.9 74 3.1 N 30 35 16 19 1013.0 1013.0 0.0
20/04:00pm 23.3 20.0 18.0 72 3.3 N 32 39 17 21 1012.9 1012.9 0.0
20/03:30pm 23.6 20.7 18.0 71 3.5 N 30 35 16 19 1012.9 1012.9 0.0
20/03:00pm 23.5 20.9 17.9 71 3.5 NNW 28 33 15 18 1013.2 1013.2 0.0
20/02:30pm 23.8 22.6 17.5 68 3.9 NNW 20 26 11 14 1013.6 1013.6 0.0
20/02:00pm 25.0 24.7 18.2 66 4.3 NW 17 24 9 13 1014.0 1014.0 0.0
20/01:30pm 24.9 24.5 18.1 66 4.3 NW 17 24 9 13 1014.4 1014.4 0.0
20/01:00pm 25.0 24.0 18.0 65 4.4 NW 20 30 11 16 1014.7 1014.7 0.0
20/12:30pm 24.8 23.9 18.3 67 4.1 WNW 20 28 11 15 1015.1 1015.1 0.0

Other Formats:

Comma delimited format used in spreadsheet applications
http://www.bom.gov.au/fwo/IDQ60801/IDQ60801.94388.axf

JavaScript Object Notation format (JSON) in row-major order
http://www.bom.gov.au/fwo/IDQ60801/IDQ60801.94388.json